sensor_id;sensor_type;location;lat;lon;timestamp;temperature;humidity
15535;DHT22;7869;49.264;8.596;2023-01-24T00:00:31;3.00;99.90
15535;DHT22;7869;49.264;8.596;2023-01-24T00:02:57;3.00;99.90
15535;DHT22;7869;49.264;8.596;2023-01-24T00:05:22;3.00;99.90
15535;DHT22;7869;49.264;8.596;2023-01-24T00:07:48;3.00;99.90
15535;DHT22;7869;49.264;8.596;2023-01-24T00:10:13;3.00;99.90
15535;DHT22;7869;49.264;8.596;2023-01-24T00:12:39;3.00;99.90
15535;DHT22;7869;49.264;8.596;2023-01-24T00:15:05;3.00;99.90
15535;DHT22;7869;49.264;8.596;2023-01-24T00:17:31;3.00;99.90
15535;DHT22;7869;49.264;8.596;2023-01-24T00:19:56;2.90;99.90
15535;DHT22;7869;49.264;8.596;2023-01-24T00:22:22;2.90;99.90
15535;DHT22;7869;49.264;8.596;2023-01-24T00:24:48;3.00;99.90
15535;DHT22;7869;49.264;8.596;2023-01-24T00:27:14;3.00;99.90
15535;DHT22;7869;49.264;8.596;2023-01-24T00:29:40;3.00;99.90
15535;DHT22;7869;49.264;8.596;2023-01-24T00:32:05;3.00;99.90
15535;DHT22;7869;49.264;8.596;2023-01-24T00:34:31;3.00;99.90
15535;DHT22;7869;49.264;8.596;2023-01-24T00:36:56;3.00;99.90
15535;DHT22;7869;49.264;8.596;2023-01-24T00:39:22;3.00;99.90
15535;DHT22;7869;49.264;8.596;2023-01-24T00:41:48;2.90;99.90
15535;DHT22;7869;49.264;8.596;2023-01-24T00:44:13;3.00;99.90
15535;DHT22;7869;49.264;8.596;2023-01-24T00:46:39;3.00;99.90
15535;DHT22;7869;49.264;8.596;2023-01-24T00:49:04;3.00;99.90
15535;DHT22;7869;49.264;8.596;2023-01-24T00:51:30;3.00;99.90
15535;DHT22;7869;49.264;8.596;2023-01-24T00:53:56;2.90;99.90
15535;DHT22;7869;49.264;8.596;2023-01-24T00:56:21;3.00;99.90
15535;DHT22;7869;49.264;8.596;2023-01-24T00:58:47;3.00;99.90
15535;DHT22;7869;49.264;8.596;2023-01-24T01:01:12;2.90;99.90
15535;DHT22;7869;49.264;8.596;2023-01-24T01:03:38;3.00;99.90
15535;DHT22;7869;49.264;8.596;2023-01-24T01:06:06;2.90;99.90
15535;DHT22;7869;49.264;8.596;2023-01-24T01:08:32;2.90;99.90
15535;DHT22;7869;49.264;8.596;2023-01-24T01:10:58;3.00;99.90
15535;DHT22;7869;49.264;8.596;2023-01-24T01:13:25;3.00;99.90
15535;DHT22;7869;49.264;8.596;2023-01-24T01:15:50;2.90;99.90
15535;DHT22;7869;49.264;8.596;2023-01-24T01:18:16;3.00;99.90
15535;DHT22;7869;49.264;8.596;2023-01-24T01:20:42;2.90;99.90
15535;DHT22;7869;49.264;8.596;2023-01-24T01:23:13;2.90;99.90
15535;DHT22;7869;49.264;8.596;2023-01-24T01:25:38;2.90;99.90
15535;DHT22;7869;49.264;8.596;2023-01-24T01:28:04;2.90;99.90
15535;DHT22;7869;49.264;8.596;2023-01-24T01:30:30;2.90;99.90
15535;DHT22;7869;49.264;8.596;2023-01-24T01:32:55;2.90;99.90
15535;DHT22;7869;49.264;8.596;2023-01-24T01:35:21;2.90;99.90
15535;DHT22;7869;49.264;8.596;2023-01-24T01:37:46;2.90;99.90
15535;DHT22;7869;49.264;8.596;2023-01-24T01:40:12;2.90;99.90
15535;DHT22;7869;49.264;8.596;2023-01-24T01:48:18;2.90;99.90
15535;DHT22;7869;49.264;8.596;2023-01-24T01:51:02;2.90;99.90
15535;DHT22;7869;49.264;8.596;2023-01-24T01:53:33;3.00;99.90
15535;DHT22;7869;49.264;8.596;2023-01-24T01:56:05;2.90;99.90
15535;DHT22;7869;49.264;8.596;2023-01-24T01:58:34;2.90;99.90
15535;DHT22;7869;49.264;8.596;2023-01-24T02:01:00;2.90;99.90
15535;DHT22;7869;49.264;8.596;2023-01-24T02:03:32;2.90;99.90
15535;DHT22;7869;49.264;8.596;2023-01-24T02:06:05;2.90;99.90
15535;DHT22;7869;49.264;8.596;2023-01-24T02:08:30;2.90;99.90
15535;DHT22;7869;49.264;8.596;2023-01-24T02:10:57;2.90;99.90
15535;DHT22;7869;49.264;8.596;2023-01-24T02:13:43;2.90;99.90
15535;DHT22;7869;49.264;8.596;2023-01-24T02:16:10;2.90;99.90
15535;DHT22;7869;49.264;8.596;2023-01-24T02:18:37;2.90;99.90
15535;DHT22;7869;49.264;8.596;2023-01-24T02:21:07;2.90;99.90
15535;DHT22;7869;49.264;8.596;2023-01-24T02:26:13;2.90;99.90
15535;DHT22;7869;49.264;8.596;2023-01-24T02:28:58;2.90;99.90
15535;DHT22;7869;49.264;8.596;2023-01-24T02:31:25;2.90;99.90
15535;DHT22;7869;49.264;8.596;2023-01-24T02:33:52;2.90;99.90
15535;DHT22;7869;49.264;8.596;2023-01-24T02:39:01;2.90;99.90
15535;DHT22;7869;49.264;8.596;2023-01-24T02:41:34;2.90;99.90
15535;DHT22;7869;49.264;8.596;2023-01-24T02:44:04;3.00;99.90
15535;DHT22;7869;49.264;8.596;2023-01-24T02:46:37;2.90;99.90
15535;DHT22;7869;49.264;8.596;2023-01-24T02:49:08;2.90;99.90
15535;DHT22;7869;49.264;8.596;2023-01-24T02:51:34;2.90;99.90
15535;DHT22;7869;49.264;8.596;2023-01-24T02:54:18;2.90;99.90
15535;DHT22;7869;49.264;8.596;2023-01-24T02:56:44;2.90;99.90
15535;DHT22;7869;49.264;8.596;2023-01-24T02:59:28;2.90;99.90
15535;DHT22;7869;49.264;8.596;2023-01-24T03:01:55;2.90;99.90
15535;DHT22;7869;49.264;8.596;2023-01-24T03:04:20;2.90;99.90
15535;DHT22;7869;49.264;8.596;2023-01-24T03:06:46;2.90;99.90
15535;DHT22;7869;49.264;8.596;2023-01-24T03:09:11;2.90;99.90
15535;DHT22;7869;49.264;8.596;2023-01-24T03:12:00;2.90;99.90
15535;DHT22;7869;49.264;8.596;2023-01-24T03:14:45;3.00;99.90
15535;DHT22;7869;49.264;8.596;2023-01-24T03:17:29;3.00;99.90
15535;DHT22;7869;49.264;8.596;2023-01-24T03:20:14;3.00;99.90
15535;DHT22;7869;49.264;8.596;2023-01-24T03:22:58;3.00;99.90
15535;DHT22;7869;49.264;8.596;2023-01-24T03:25:42;2.90;99.90
15535;DHT22;7869;49.264;8.596;2023-01-24T03:28:26;2.90;99.90
15535;DHT22;7869;49.264;8.596;2023-01-24T03:31:10;2.90;99.90
15535;DHT22;7869;49.264;8.596;2023-01-24T03:33:54;2.90;99.90
15535;DHT22;7869;49.264;8.596;2023-01-24T03:36:38;2.90;99.90
15535;DHT22;7869;49.264;8.596;2023-01-24T03:39:04;2.90;99.90
15535;DHT22;7869;49.264;8.596;2023-01-24T03:41:48;2.90;99.90
15535;DHT22;7869;49.264;8.596;2023-01-24T03:44:13;2.90;99.90
15535;DHT22;7869;49.264;8.596;2023-01-24T03:46:39;2.90;99.90
15535;DHT22;7869;49.264;8.596;2023-01-24T03:49:06;2.90;99.90
15535;DHT22;7869;49.264;8.596;2023-01-24T03:51:31;2.90;99.90
15535;DHT22;7869;49.264;8.596;2023-01-24T03:54:15;2.90;99.90
15535;DHT22;7869;49.264;8.596;2023-01-24T03:56:41;2.90;99.90
15535;DHT22;7869;49.264;8.596;2023-01-24T03:59:06;2.90;99.90
15535;DHT22;7869;49.264;8.596;2023-01-24T04:01:32;3.00;99.90
15535;DHT22;7869;49.264;8.596;2023-01-24T04:03:57;3.00;99.90
15535;DHT22;7869;49.264;8.596;2023-01-24T04:06:23;3.00;99.90
15535;DHT22;7869;49.264;8.596;2023-01-24T04:08:49;3.00;99.90
15535;DHT22;7869;49.264;8.596;2023-01-24T04:11:16;3.00;99.90
15535;DHT22;7869;49.264;8.596;2023-01-24T04:13:42;3.00;99.90
15535;DHT22;7869;49.264;8.596;2023-01-24T04:16:08;3.00;99.90
15535;DHT22;7869;49.264;8.596;2023-01-24T04:18:33;2.90;99.90
15535;DHT22;7869;49.264;8.596;2023-01-24T04:21:02;2.90;99.90
15535;DHT22;7869;49.264;8.596;2023-01-24T04:23:28;2.90;99.90
15535;DHT22;7869;49.264;8.596;2023-01-24T04:25:53;2.90;99.90
15535;DHT22;7869;49.264;8.596;2023-01-24T04:28:24;3.00;99.90
15535;DHT22;7869;49.264;8.596;2023-01-24T04:31:01;3.00;99.90
15535;DHT22;7869;49.264;8.596;2023-01-24T04:33:27;2.90;99.90
15535;DHT22;7869;49.264;8.596;2023-01-24T04:35:59;2.90;99.90
15535;DHT22;7869;49.264;8.596;2023-01-24T04:38:25;2.90;99.90
15535;DHT22;7869;49.264;8.596;2023-01-24T04:41:00;2.80;99.90
15535;DHT22;7869;49.264;8.596;2023-01-24T04:43:27;2.90;99.90
15535;DHT22;7869;49.264;8.596;2023-01-24T04:45:57;2.90;99.90
15535;DHT22;7869;49.264;8.596;2023-01-24T04:48:22;2.90;99.90
15535;DHT22;7869;49.264;8.596;2023-01-24T04:50:48;2.90;99.90
15535;DHT22;7869;49.264;8.596;2023-01-24T04:53:13;2.90;99.90
15535;DHT22;7869;49.264;8.596;2023-01-24T04:55:39;2.90;99.90
15535;DHT22;7869;49.264;8.596;2023-01-24T04:58:05;2.90;99.90
15535;DHT22;7869;49.264;8.596;2023-01-24T05:00:30;2.90;99.90
15535;DHT22;7869;49.264;8.596;2023-01-24T05:02:56;2.90;99.90
15535;DHT22;7869;49.264;8.596;2023-01-24T05:05:21;2.90;99.90
15535;DHT22;7869;49.264;8.596;2023-01-24T05:07:47;2.90;99.90
15535;DHT22;7869;49.264;8.596;2023-01-24T05:10:12;2.90;99.90
15535;DHT22;7869;49.264;8.596;2023-01-24T05:12:38;2.90;99.90
15535;DHT22;7869;49.264;8.596;2023-01-24T05:15:04;2.90;99.90
15535;DHT22;7869;49.264;8.596;2023-01-24T05:17:29;2.90;99.90
15535;DHT22;7869;49.264;8.596;2023-01-24T05:19:55;3.00;99.90
15535;DHT22;7869;49.264;8.596;2023-01-24T05:22:20;3.00;99.90
15535;DHT22;7869;49.264;8.596;2023-01-24T05:24:46;2.90;99.90
15535;DHT22;7869;49.264;8.596;2023-01-24T05:27:11;2.90;99.90
15535;DHT22;7869;49.264;8.596;2023-01-24T05:29:37;2.90;99.90
15535;DHT22;7869;49.264;8.596;2023-01-24T05:32:02;2.90;99.90
15535;DHT22;7869;49.264;8.596;2023-01-24T05:34:28;2.90;99.90
15535;DHT22;7869;49.264;8.596;2023-01-24T05:36:54;2.90;99.90
15535;DHT22;7869;49.264;8.596;2023-01-24T05:39:19;2.90;99.90
15535;DHT22;7869;49.264;8.596;2023-01-24T05:41:45;2.90;99.90
15535;DHT22;7869;49.264;8.596;2023-01-24T05:44:10;3.00;99.90
15535;DHT22;7869;49.264;8.596;2023-01-24T05:46:36;2.90;99.90
15535;DHT22;7869;49.264;8.596;2023-01-24T05:49:02;2.90;99.90
15535;DHT22;7869;49.264;8.596;2023-01-24T05:51:28;2.90;99.90
15535;DHT22;7869;49.264;8.596;2023-01-24T05:53:53;2.90;99.90
15535;DHT22;7869;49.264;8.596;2023-01-24T05:56:19;2.90;99.90
15535;DHT22;7869;49.264;8.596;2023-01-24T05:58:46;2.90;99.90
15535;DHT22;7869;49.264;8.596;2023-01-24T06:01:17;3.00;99.90
15535;DHT22;7869;49.264;8.596;2023-01-24T06:03:45;3.00;99.90
15535;DHT22;7869;49.264;8.596;2023-01-24T06:06:12;3.00;99.90
15535;DHT22;7869;49.264;8.596;2023-01-24T06:08:38;3.00;99.90
15535;DHT22;7869;49.264;8.596;2023-01-24T06:11:06;3.00;99.90
15535;DHT22;7869;49.264;8.596;2023-01-24T06:13:33;2.90;99.90
15535;DHT22;7869;49.264;8.596;2023-01-24T06:16:07;2.90;99.90
15535;DHT22;7869;49.264;8.596;2023-01-24T06:18:34;2.90;99.90
15535;DHT22;7869;49.264;8.596;2023-01-24T06:21:08;2.90;99.90
15535;DHT22;7869;49.264;8.596;2023-01-24T06:23:34;3.00;99.90
15535;DHT22;7869;49.264;8.596;2023-01-24T06:26:00;3.00;99.90
15535;DHT22;7869;49.264;8.596;2023-01-24T06:28:25;2.90;99.90
15535;DHT22;7869;49.264;8.596;2023-01-24T06:37:04;2.90;99.90
15535;DHT22;7869;49.264;8.596;2023-01-24T06:39:33;2.80;99.90
15535;DHT22;7869;49.264;8.596;2023-01-24T06:41:59;2.80;99.90
15535;DHT22;7869;49.264;8.596;2023-01-24T06:44:25;2.80;99.90
15535;DHT22;7869;49.264;8.596;2023-01-24T06:46:51;2.80;99.90
15535;DHT22;7869;49.264;8.596;2023-01-24T06:49:16;2.80;99.90
15535;DHT22;7869;49.264;8.596;2023-01-24T06:51:42;2.80;99.90
15535;DHT22;7869;49.264;8.596;2023-01-24T06:54:07;2.80;99.90
15535;DHT22;7869;49.264;8.596;2023-01-24T06:56:33;2.90;99.90
15535;DHT22;7869;49.264;8.596;2023-01-24T06:58:59;2.90;99.90
15535;DHT22;7869;49.264;8.596;2023-01-24T07:01:24;2.80;99.90
15535;DHT22;7869;49.264;8.596;2023-01-24T07:03:50;2.80;99.90
15535;DHT22;7869;49.264;8.596;2023-01-24T07:06:16;2.80;99.90
15535;DHT22;7869;49.264;8.596;2023-01-24T07:08:41;2.80;99.90
15535;DHT22;7869;49.264;8.596;2023-01-24T07:11:07;2.80;99.90
15535;DHT22;7869;49.264;8.596;2023-01-24T07:13:32;2.80;99.90
15535;DHT22;7869;49.264;8.596;2023-01-24T07:16:01;2.90;99.90
15535;DHT22;7869;49.264;8.596;2023-01-24T07:18:27;2.90;99.90
15535;DHT22;7869;49.264;8.596;2023-01-24T07:20:53;3.00;99.90
15535;DHT22;7869;49.264;8.596;2023-01-24T07:23:27;3.00;99.90
15535;DHT22;7869;49.264;8.596;2023-01-24T07:25:58;3.00;99.90
15535;DHT22;7869;49.264;8.596;2023-01-24T07:28:24;3.00;99.90
15535;DHT22;7869;49.264;8.596;2023-01-24T07:30:52;3.00;99.90
15535;DHT22;7869;49.264;8.596;2023-01-24T07:33:17;3.10;99.90
15535;DHT22;7869;49.264;8.596;2023-01-24T07:35:43;3.10;99.90
15535;DHT22;7869;49.264;8.596;2023-01-24T07:38:09;3.10;99.90
15535;DHT22;7869;49.264;8.596;2023-01-24T07:40:36;3.10;99.90
15535;DHT22;7869;49.264;8.596;2023-01-24T07:43:02;3.20;99.90
15535;DHT22;7869;49.264;8.596;2023-01-24T07:45:28;3.20;99.90
15535;DHT22;7869;49.264;8.596;2023-01-24T07:47:57;3.10;99.90
15535;DHT22;7869;49.264;8.596;2023-01-24T07:50:27;3.10;99.90
15535;DHT22;7869;49.264;8.596;2023-01-24T07:52:56;3.20;99.90
15535;DHT22;7869;49.264;8.596;2023-01-24T07:55:22;3.20;99.90
15535;DHT22;7869;49.264;8.596;2023-01-24T07:57:47;3.30;99.90
15535;DHT22;7869;49.264;8.596;2023-01-24T08:00:14;3.30;99.90
15535;DHT22;7869;49.264;8.596;2023-01-24T08:02:43;3.30;99.90
15535;DHT22;7869;49.264;8.596;2023-01-24T08:05:10;3.30;99.90
15535;DHT22;7869;49.264;8.596;2023-01-24T08:07:35;3.30;99.90
15535;DHT22;7869;49.264;8.596;2023-01-24T08:10:01;3.30;99.90
15535;DHT22;7869;49.264;8.596;2023-01-24T08:12:27;3.30;99.90
15535;DHT22;7869;49.264;8.596;2023-01-24T08:14:52;3.40;99.90
15535;DHT22;7869;49.264;8.596;2023-01-24T08:17:18;3.40;99.90
15535;DHT22;7869;49.264;8.596;2023-01-24T08:19:43;3.40;99.90
15535;DHT22;7869;49.264;8.596;2023-01-24T08:22:09;3.40;99.90
15535;DHT22;7869;49.264;8.596;2023-01-24T08:24:35;3.40;99.90
15535;DHT22;7869;49.264;8.596;2023-01-24T08:27:00;3.50;99.90
15535;DHT22;7869;49.264;8.596;2023-01-24T08:29:27;3.50;99.90
15535;DHT22;7869;49.264;8.596;2023-01-24T08:31:52;3.50;99.90
15535;DHT22;7869;49.264;8.596;2023-01-24T08:34:18;3.50;99.90
15535;DHT22;7869;49.264;8.596;2023-01-24T08:36:44;3.50;99.90
15535;DHT22;7869;49.264;8.596;2023-01-24T08:39:10;3.60;99.90
15535;DHT22;7869;49.264;8.596;2023-01-24T08:41:35;3.60;99.90
15535;DHT22;7869;49.264;8.596;2023-01-24T08:44:02;3.50;99.90
15535;DHT22;7869;49.264;8.596;2023-01-24T08:46:29;3.60;99.90
15535;DHT22;7869;49.264;8.596;2023-01-24T08:48:55;3.60;99.90
15535;DHT22;7869;49.264;8.596;2023-01-24T08:51:20;3.60;99.90
15535;DHT22;7869;49.264;8.596;2023-01-24T08:53:46;3.70;99.90
15535;DHT22;7869;49.264;8.596;2023-01-24T08:56:12;3.70;99.90
15535;DHT22;7869;49.264;8.596;2023-01-24T08:58:38;3.70;99.90
15535;DHT22;7869;49.264;8.596;2023-01-24T09:01:07;3.70;99.90
15535;DHT22;7869;49.264;8.596;2023-01-24T09:03:33;3.70;99.90
15535;DHT22;7869;49.264;8.596;2023-01-24T09:05:59;3.70;99.90
15535;DHT22;7869;49.264;8.596;2023-01-24T09:08:25;3.70;99.90
15535;DHT22;7869;49.264;8.596;2023-01-24T09:10:51;3.70;99.90
15535;DHT22;7869;49.264;8.596;2023-01-24T09:13:17;3.70;99.90
15535;DHT22;7869;49.264;8.596;2023-01-24T09:15:42;3.80;99.90
15535;DHT22;7869;49.264;8.596;2023-01-24T09:18:08;3.80;99.90
15535;DHT22;7869;49.264;8.596;2023-01-24T09:20:34;3.80;99.90
15535;DHT22;7869;49.264;8.596;2023-01-24T09:23:00;3.90;99.90
15535;DHT22;7869;49.264;8.596;2023-01-24T09:25:32;3.90;99.90
15535;DHT22;7869;49.264;8.596;2023-01-24T09:27:57;3.90;99.90
15535;DHT22;7869;49.264;8.596;2023-01-24T09:30:23;3.90;99.90
15535;DHT22;7869;49.264;8.596;2023-01-24T09:32:48;3.90;99.90
15535;DHT22;7869;49.264;8.596;2023-01-24T09:35:14;3.90;99.90
15535;DHT22;7869;49.264;8.596;2023-01-24T09:37:40;3.90;99.90
15535;DHT22;7869;49.264;8.596;2023-01-24T09:40:23;3.90;99.90
15535;DHT22;7869;49.264;8.596;2023-01-24T09:46:08;4.00;99.90
15535;DHT22;7869;49.264;8.596;2023-01-24T09:48:39;4.00;99.90
15535;DHT22;7869;49.264;8.596;2023-01-24T09:51:12;4.10;99.90
15535;DHT22;7869;49.264;8.596;2023-01-24T09:53:42;4.10;99.90
15535;DHT22;7869;49.264;8.596;2023-01-24T09:56:57;4.10;99.90
15535;DHT22;7869;49.264;8.596;2023-01-24T10:01:41;4.10;99.90
15535;DHT22;7869;49.264;8.596;2023-01-24T10:04:31;4.10;99.90
15535;DHT22;7869;49.264;8.596;2023-01-24T10:20:48;4.30;99.90
15535;DHT22;7869;49.264;8.596;2023-01-24T10:23:30;4.30;99.90
15535;DHT22;7869;49.264;8.596;2023-01-24T10:26:23;4.40;99.90
15535;DHT22;7869;49.264;8.596;2023-01-24T10:28:56;4.40;99.90
15535;DHT22;7869;49.264;8.596;2023-01-24T10:31:27;4.40;99.90
15535;DHT22;7869;49.264;8.596;2023-01-24T10:34:12;4.40;99.90
15535;DHT22;7869;49.264;8.596;2023-01-24T10:36:44;4.40;99.90
15535;DHT22;7869;49.264;8.596;2023-01-24T10:39:11;4.40;99.90
15535;DHT22;7869;49.264;8.596;2023-01-24T10:41:38;4.40;99.90
15535;DHT22;7869;49.264;8.596;2023-01-24T10:44:12;4.50;99.90
15535;DHT22;7869;49.264;8.596;2023-01-24T10:46:48;4.50;99.90
15535;DHT22;7869;49.264;8.596;2023-01-24T10:49:23;4.50;99.90
15535;DHT22;7869;49.264;8.596;2023-01-24T10:52:15;4.50;99.90
15535;DHT22;7869;49.264;8.596;2023-01-24T10:54:47;4.50;99.90
15535;DHT22;7869;49.264;8.596;2023-01-24T10:57:30;4.60;99.90
15535;DHT22;7869;49.264;8.596;2023-01-24T11:02:36;4.60;99.90
15535;DHT22;7869;49.264;8.596;2023-01-24T11:05:05;4.60;99.90
15535;DHT22;7869;49.264;8.596;2023-01-24T11:07:34;4.60;99.90
15535;DHT22;7869;49.264;8.596;2023-01-24T11:10:20;4.60;99.90
15535;DHT22;7869;49.264;8.596;2023-01-24T11:15:25;4.60;99.90
15535;DHT22;7869;49.264;8.596;2023-01-24T11:18:05;4.60;99.90
15535;DHT22;7869;49.264;8.596;2023-01-24T11:20:33;4.60;99.90
15535;DHT22;7869;49.264;8.596;2023-01-24T11:23:09;4.60;99.90
15535;DHT22;7869;49.264;8.596;2023-01-24T11:25:59;4.60;99.90
15535;DHT22;7869;49.264;8.596;2023-01-24T11:28:34;4.60;99.90
15535;DHT22;7869;49.264;8.596;2023-01-24T11:31:06;4.70;99.90
15535;DHT22;7869;49.264;8.596;2023-01-24T11:33:54;4.70;99.90
15535;DHT22;7869;49.264;8.596;2023-01-24T11:39:25;4.70;99.90
15535;DHT22;7869;49.264;8.596;2023-01-24T11:42:20;4.70;99.90
15535;DHT22;7869;49.264;8.596;2023-01-24T11:47:46;4.70;99.90
15535;DHT22;7869;49.264;8.596;2023-01-24T11:50:27;4.60;99.90
15535;DHT22;7869;49.264;8.596;2023-01-24T11:53:25;4.60;99.90
15535;DHT22;7869;49.264;8.596;2023-01-24T11:58:45;4.80;99.90
15535;DHT22;7869;49.264;8.596;2023-01-24T12:08:01;4.60;99.90
15535;DHT22;7869;49.264;8.596;2023-01-24T12:13:18;4.60;99.90
15535;DHT22;7869;49.264;8.596;2023-01-24T12:21:20;4.70;99.90
15535;DHT22;7869;49.264;8.596;2023-01-24T12:26:27;4.70;99.90
15535;DHT22;7869;49.264;8.596;2023-01-24T12:32:07;4.80;99.90
15535;DHT22;7869;49.264;8.596;2023-01-24T12:37:51;4.80;99.90
15535;DHT22;7869;49.264;8.596;2023-01-24T12:40:22;4.80;99.90
15535;DHT22;7869;49.264;8.596;2023-01-24T12:42:55;4.90;99.90
15535;DHT22;7869;49.264;8.596;2023-01-24T12:45:31;4.90;99.90
15535;DHT22;7869;49.264;8.596;2023-01-24T12:48:19;4.90;99.90
15535;DHT22;7869;49.264;8.596;2023-01-24T12:54:02;4.90;99.90
15535;DHT22;7869;49.264;8.596;2023-01-24T12:59:30;4.80;99.90
15535;DHT22;7869;49.264;8.596;2023-01-24T13:02:01;4.70;99.90
15535;DHT22;7869;49.264;8.596;2023-01-24T13:04:47;4.80;99.90
15535;DHT22;7869;49.264;8.596;2023-01-24T13:12:33;4.80;99.90
15535;DHT22;7869;49.264;8.596;2023-01-24T13:15:03;4.80;99.90
15535;DHT22;7869;49.264;8.596;2023-01-24T13:29:18;4.60;99.90
15535;DHT22;7869;49.264;8.596;2023-01-24T13:32:05;4.60;99.90
15535;DHT22;7869;49.264;8.596;2023-01-24T13:34:35;4.70;99.90
15535;DHT22;7869;49.264;8.596;2023-01-24T13:37:03;4.60;99.90
15535;DHT22;7869;49.264;8.596;2023-01-24T13:39:32;4.60;99.90
15535;DHT22;7869;49.264;8.596;2023-01-24T13:42:23;4.60;99.90
15535;DHT22;7869;49.264;8.596;2023-01-24T13:44:50;4.70;99.90
15535;DHT22;7869;49.264;8.596;2023-01-24T13:54:57;4.50;99.90
15535;DHT22;7869;49.264;8.596;2023-01-24T13:57:26;4.50;99.90
15535;DHT22;7869;49.264;8.596;2023-01-24T14:07:58;4.60;99.90
15535;DHT22;7869;49.264;8.596;2023-01-24T14:10:38;4.60;99.90
15535;DHT22;7869;49.264;8.596;2023-01-24T14:13:05;4.60;99.90
15535;DHT22;7869;49.264;8.596;2023-01-24T14:15:40;4.50;99.90
15535;DHT22;7869;49.264;8.596;2023-01-24T14:21:20;4.50;99.90
15535;DHT22;7869;49.264;8.596;2023-01-24T14:23:49;4.50;99.90
15535;DHT22;7869;49.264;8.596;2023-01-24T14:26:18;4.50;99.90
15535;DHT22;7869;49.264;8.596;2023-01-24T14:28:50;4.40;99.90
15535;DHT22;7869;49.264;8.596;2023-01-24T14:31:28;4.40;99.90
15535;DHT22;7869;49.264;8.596;2023-01-24T14:34:20;4.40;99.90
15535;DHT22;7869;49.264;8.596;2023-01-24T14:36:48;4.30;99.90
15535;DHT22;7869;49.264;8.596;2023-01-24T14:39:24;4.30;99.90
15535;DHT22;7869;49.264;8.596;2023-01-24T14:41:56;4.30;99.90
15535;DHT22;7869;49.264;8.596;2023-01-24T14:44:28;4.30;99.90
15535;DHT22;7869;49.264;8.596;2023-01-24T14:47:02;4.30;99.90
15535;DHT22;7869;49.264;8.596;2023-01-24T14:51:57;4.20;99.90
15535;DHT22;7869;49.264;8.596;2023-01-24T14:54:23;4.20;99.90
15535;DHT22;7869;49.264;8.596;2023-01-24T14:56:50;4.10;99.90
15535;DHT22;7869;49.264;8.596;2023-01-24T14:59:17;4.10;99.90
15535;DHT22;7869;49.264;8.596;2023-01-24T15:01:45;4.10;99.90
15535;DHT22;7869;49.264;8.596;2023-01-24T15:04:21;4.10;99.90
15535;DHT22;7869;49.264;8.596;2023-01-24T15:07:12;4.10;99.90
15535;DHT22;7869;49.264;8.596;2023-01-24T15:09:39;4.10;99.90
15535;DHT22;7869;49.264;8.596;2023-01-24T15:12:32;4.00;99.90
15535;DHT22;7869;49.264;8.596;2023-01-24T15:15:00;4.00;99.90
15535;DHT22;7869;49.264;8.596;2023-01-24T15:17:28;3.90;99.90
15535;DHT22;7869;49.264;8.596;2023-01-24T15:20:00;3.90;99.90
15535;DHT22;7869;49.264;8.596;2023-01-24T15:22:34;3.90;99.90
15535;DHT22;7869;49.264;8.596;2023-01-24T15:25:01;3.90;99.90
15535;DHT22;7869;49.264;8.596;2023-01-24T15:40:57;3.80;99.90
15535;DHT22;7869;49.264;8.596;2023-01-24T15:46:34;3.80;99.90
15535;DHT22;7869;49.264;8.596;2023-01-24T15:49:19;3.80;99.90
15535;DHT22;7869;49.264;8.596;2023-01-24T15:54:34;3.70;99.90
15535;DHT22;7869;49.264;8.596;2023-01-24T15:57:03;3.70;99.90
15535;DHT22;7869;49.264;8.596;2023-01-24T15:59:30;3.70;99.90
15535;DHT22;7869;49.264;8.596;2023-01-24T16:01:56;3.70;99.90
15535;DHT22;7869;49.264;8.596;2023-01-24T16:04:22;3.60;99.90
15535;DHT22;7869;49.264;8.596;2023-01-24T16:06:49;3.60;99.90
15535;DHT22;7869;49.264;8.596;2023-01-24T16:09:15;3.60;99.90
15535;DHT22;7869;49.264;8.596;2023-01-24T16:11:43;3.60;99.90
15535;DHT22;7869;49.264;8.596;2023-01-24T16:14:15;3.60;99.90
15535;DHT22;7869;49.264;8.596;2023-01-24T16:16:42;3.50;99.90
15535;DHT22;7869;49.264;8.596;2023-01-24T16:19:26;3.50;99.90
15535;DHT22;7869;49.264;8.596;2023-01-24T16:21:52;3.50;99.90
15535;DHT22;7869;49.264;8.596;2023-01-24T16:24:18;3.50;99.90
15535;DHT22;7869;49.264;8.596;2023-01-24T16:26:47;3.50;99.90
15535;DHT22;7869;49.264;8.596;2023-01-24T16:29:18;3.50;99.90
15535;DHT22;7869;49.264;8.596;2023-01-24T16:31:45;3.40;99.90
15535;DHT22;7869;49.264;8.596;2023-01-24T16:34:12;3.40;99.90
15535;DHT22;7869;49.264;8.596;2023-01-24T16:36:38;3.40;99.90
15535;DHT22;7869;49.264;8.596;2023-01-24T16:39:05;3.40;99.90
15535;DHT22;7869;49.264;8.596;2023-01-24T16:41:31;3.30;99.90
15535;DHT22;7869;49.264;8.596;2023-01-24T16:43:57;3.20;99.90
15535;DHT22;7869;49.264;8.596;2023-01-24T16:46:22;3.10;99.90
15535;DHT22;7869;49.264;8.596;2023-01-24T16:48:49;3.20;99.90
15535;DHT22;7869;49.264;8.596;2023-01-24T16:51:15;3.20;99.90
15535;DHT22;7869;49.264;8.596;2023-01-24T16:53:41;3.20;99.90
15535;DHT22;7869;49.264;8.596;2023-01-24T16:56:08;3.10;99.90
15535;DHT22;7869;49.264;8.596;2023-01-24T16:58:34;3.10;99.90
15535;DHT22;7869;49.264;8.596;2023-01-24T17:01:01;3.10;99.90
15535;DHT22;7869;49.264;8.596;2023-01-24T17:03:26;3.10;99.90
15535;DHT22;7869;49.264;8.596;2023-01-24T17:05:52;3.10;99.90
15535;DHT22;7869;49.264;8.596;2023-01-24T17:08:17;3.10;99.90
15535;DHT22;7869;49.264;8.596;2023-01-24T17:10:43;3.10;99.90
15535;DHT22;7869;49.264;8.596;2023-01-24T17:13:09;3.10;99.90
15535;DHT22;7869;49.264;8.596;2023-01-24T17:15:36;3.20;99.90
15535;DHT22;7869;49.264;8.596;2023-01-24T17:18:02;3.20;99.90
15535;DHT22;7869;49.264;8.596;2023-01-24T17:20:28;3.30;99.90
15535;DHT22;7869;49.264;8.596;2023-01-24T17:22:53;3.30;99.90
15535;DHT22;7869;49.264;8.596;2023-01-24T17:25:19;3.30;99.90
15535;DHT22;7869;49.264;8.596;2023-01-24T17:27:46;3.30;99.90
15535;DHT22;7869;49.264;8.596;2023-01-24T17:30:13;3.40;99.90
15535;DHT22;7869;49.264;8.596;2023-01-24T17:32:38;3.40;99.90
15535;DHT22;7869;49.264;8.596;2023-01-24T17:35:04;3.40;99.90
15535;DHT22;7869;49.264;8.596;2023-01-24T17:37:31;3.40;99.90
15535;DHT22;7869;49.264;8.596;2023-01-24T17:39:56;3.40;99.90
15535;DHT22;7869;49.264;8.596;2023-01-24T17:42:22;3.40;99.90
15535;DHT22;7869;49.264;8.596;2023-01-24T17:44:48;3.30;99.90
15535;DHT22;7869;49.264;8.596;2023-01-24T17:47:13;3.40;99.90
15535;DHT22;7869;49.264;8.596;2023-01-24T17:49:39;3.30;99.90
15535;DHT22;7869;49.264;8.596;2023-01-24T17:52:05;3.40;99.90
15535;DHT22;7869;49.264;8.596;2023-01-24T17:54:31;3.30;99.90
15535;DHT22;7869;49.264;8.596;2023-01-24T17:56:56;3.30;99.90
15535;DHT22;7869;49.264;8.596;2023-01-24T17:59:22;3.30;99.90
15535;DHT22;7869;49.264;8.596;2023-01-24T18:01:47;3.30;99.90
15535;DHT22;7869;49.264;8.596;2023-01-24T18:04:13;3.30;99.90
15535;DHT22;7869;49.264;8.596;2023-01-24T18:06:38;3.30;99.90
15535;DHT22;7869;49.264;8.596;2023-01-24T18:09:04;3.30;99.90
15535;DHT22;7869;49.264;8.596;2023-01-24T18:11:30;3.30;99.90
15535;DHT22;7869;49.264;8.596;2023-01-24T18:13:55;3.30;99.90
15535;DHT22;7869;49.264;8.596;2023-01-24T18:16:21;3.30;99.90
15535;DHT22;7869;49.264;8.596;2023-01-24T18:18:48;3.30;99.90
15535;DHT22;7869;49.264;8.596;2023-01-24T18:21:22;3.30;99.90
15535;DHT22;7869;49.264;8.596;2023-01-24T18:23:51;3.30;99.90
15535;DHT22;7869;49.264;8.596;2023-01-24T18:26:17;3.30;99.90
15535;DHT22;7869;49.264;8.596;2023-01-24T18:28:43;3.20;99.90
15535;DHT22;7869;49.264;8.596;2023-01-24T18:31:10;3.30;99.90
15535;DHT22;7869;49.264;8.596;2023-01-24T18:33:37;3.30;99.90